N822JH KGLS-KSGR
Flight info
| Callsign | N822JH |
|---|---|
| Flight time | 0h 25m |
| Altitude | 4000 |
| Route | KSGR |
| Aircraft | PA24/L-SDGRY/S |
Departure
| Time | 2026-04-26 14:34 |
|---|---|
| Airport | Scholes International At Galveston Airport (KGLS) |
Arrival
| Time | 2026-04-26 14:59 |
|---|---|
| Airport | Sugar Land Regional Airport (KSGR) |
| Time | Latitude | Longitude | Altitude | Speed | Heading |
|---|---|---|---|---|---|
| 2026-04-26 14:17 | 29.26764 | -94.85628 | 12 ft | 0 kts | 3° |
| 2026-04-26 14:22 | 29.26767 | -94.85628 | 12 ft | 3 kts | 3° |
| 2026-04-26 14:22 | 29.26804 | -94.85660 | 12 ft | 9 kts | 302° |
| 2026-04-26 14:22 | 29.26881 | -94.85723 | 10 ft | 18 kts | 341° |
| 2026-04-26 14:23 | 29.27011 | -94.85738 | 10 ft | 19 kts | 1° |
| 2026-04-26 14:23 | 29.27129 | -94.85735 | 12 ft | 15 kts | 1° |
| 2026-04-26 14:23 | 29.27218 | -94.85758 | 12 ft | 13 kts | 317° |
| 2026-04-26 14:23 | 29.27273 | -94.85833 | 12 ft | 12 kts | 308° |
| 2026-04-26 14:24 | 29.27327 | -94.85913 | 14 ft | 15 kts | 307° |
| 2026-04-26 14:24 | 29.27395 | -94.86029 | 15 ft | 20 kts | 298° |
| 2026-04-26 14:24 | 29.27427 | -94.86157 | 13 ft | 17 kts | 257° |
| 2026-04-26 14:24 | 29.27398 | -94.86289 | 12 ft | 18 kts | 256° |
| 2026-04-26 14:25 | 29.27374 | -94.86407 | 12 ft | 13 kts | 257° |
| 2026-04-26 14:25 | 29.27352 | -94.86521 | 13 ft | 19 kts | 256° |
| 2026-04-26 14:25 | 29.27301 | -94.86647 | 12 ft | 15 kts | 198° |
| 2026-04-26 14:25 | 29.27231 | -94.86692 | 12 ft | 8 kts | 229° |
| 2026-04-26 14:26 | 29.27218 | -94.86702 | 12 ft | 0 kts | 119° |
| 2026-04-26 14:26 | 29.27218 | -94.86701 | 12 ft | 0 kts | 114° |
| 2026-04-26 14:32 | 29.27216 | -94.86698 | 12 ft | 5 kts | 131° |
| 2026-04-26 14:33 | 29.27128 | -94.86723 | 12 ft | 18 kts | 149° |
| 2026-04-26 14:33 | 29.26950 | -94.86554 | 14 ft | 54 kts | 138° |
| 2026-04-26 14:33 | 29.26541 | -94.86174 | 128 ft | 82 kts | 137° |
| 2026-04-26 14:33 | 29.26066 | -94.85756 | 408 ft | 92 kts | 138° |
| 2026-04-26 14:34 | 29.25556 | -94.85307 | 746 ft | 93 kts | 141° |
| 2026-04-26 14:34 | 29.25053 | -94.84834 | 1134 ft | 88 kts | 142° |
| 2026-04-26 14:34 | 29.24584 | -94.84466 | 1550 ft | 85 kts | 170° |
| 2026-04-26 14:34 | 29.24059 | -94.84652 | 1920 ft | 84 kts | 224° |
| 2026-04-26 14:35 | 29.23944 | -94.85307 | 2241 ft | 94 kts | 274° |
| 2026-04-26 14:35 | 29.24257 | -94.85992 | 2577 ft | 102 kts | 292° |
| 2026-04-26 14:35 | 29.24623 | -94.86731 | 2877 ft | 108 kts | 286° |
| 2026-04-26 14:35 | 29.24876 | -94.87520 | 3213 ft | 109 kts | 276° |
| 2026-04-26 14:36 | 29.25107 | -94.88326 | 3574 ft | 100 kts | 281° |
| 2026-04-26 14:36 | 29.25346 | -94.89110 | 3855 ft | 104 kts | 277° |
| 2026-04-26 14:36 | 29.25747 | -94.89841 | 4035 ft | 120 kts | 295° |
| 2026-04-26 14:36 | 29.26198 | -94.90642 | 4180 ft | 120 kts | 302° |
| 2026-04-26 14:37 | 29.26559 | -94.91505 | 4159 ft | 129 kts | 254° |
| 2026-04-26 14:37 | 29.26085 | -94.92284 | 4288 ft | 103 kts | 247° |
| 2026-04-26 14:37 | 29.26167 | -94.93129 | 4237 ft | 121 kts | 290° |
| 2026-04-26 14:37 | 29.26699 | -94.93866 | 4317 ft | 125 kts | 312° |
| 2026-04-26 14:38 | 29.27429 | -94.94532 | 4259 ft | 138 kts | 319° |
| 2026-04-26 14:38 | 29.28193 | -94.95134 | 4412 ft | 134 kts | 311° |
| 2026-04-26 14:38 | 29.28798 | -94.95984 | 4373 ft | 139 kts | 297° |
| 2026-04-26 14:38 | 29.29075 | -94.96646 | 4451 ft | 131 kts | 288° |
| 2026-04-26 14:39 | 29.29612 | -94.97898 | 4350 ft | 135 kts | 283° |
| 2026-04-26 14:39 | 29.29953 | -94.98902 | 4214 ft | 141 kts | 288° |
| 2026-04-26 14:39 | 29.30421 | -94.99917 | 4126 ft | 141 kts | 295° |
| 2026-04-26 14:39 | 29.30974 | -95.00850 | 4052 ft | 144 kts | 294° |
| 2026-04-26 14:40 | 29.31207 | -95.01257 | 4009 ft | 144 kts | 296° |
| 2026-04-26 14:40 | 29.31763 | -95.02155 | 3977 ft | 142 kts | 297° |
| 2026-04-26 14:40 | 29.32305 | -95.03093 | 3949 ft | 141 kts | 293° |
| 2026-04-26 14:40 | 29.32722 | -95.04053 | 3959 ft | 134 kts | 287° |
| 2026-04-26 14:41 | 29.33078 | -95.05057 | 3927 ft | 133 kts | 283° |
| 2026-04-26 14:41 | 29.33452 | -95.05985 | 3953 ft | 130 kts | 294° |
| 2026-04-26 14:41 | 29.33868 | -95.06915 | 3950 ft | 130 kts | 292° |
| 2026-04-26 14:41 | 29.34354 | -95.07790 | 3958 ft | 130 kts | 293° |
| 2026-04-26 14:42 | 29.34790 | -95.08705 | 3935 ft | 133 kts | 289° |
| 2026-04-26 14:42 | 29.35177 | -95.09639 | 3984 ft | 128 kts | 288° |
| 2026-04-26 14:42 | 29.35584 | -95.10552 | 4054 ft | 130 kts | 290° |
| 2026-04-26 14:42 | 29.35990 | -95.11474 | 4098 ft | 136 kts | 288° |
| 2026-04-26 14:43 | 29.36429 | -95.12483 | 4029 ft | 147 kts | 291° |
| 2026-04-26 14:43 | 29.36916 | -95.13526 | 4021 ft | 149 kts | 290° |
| 2026-04-26 14:43 | 29.37380 | -95.14586 | 4026 ft | 149 kts | 295° |
| 2026-04-26 14:43 | 29.37964 | -95.15582 | 4022 ft | 152 kts | 297° |
| 2026-04-26 14:44 | 29.38514 | -95.16616 | 4020 ft | 151 kts | 295° |
| 2026-04-26 14:44 | 29.39030 | -95.17670 | 4017 ft | 152 kts | 291° |
| 2026-04-26 14:44 | 29.39540 | -95.18735 | 4017 ft | 152 kts | 294° |
| 2026-04-26 14:44 | 29.40055 | -95.19790 | 4017 ft | 151 kts | 290° |
| 2026-04-26 14:45 | 29.40525 | -95.20865 | 4016 ft | 151 kts | 290° |
| 2026-04-26 14:45 | 29.40853 | -95.21565 | 4018 ft | 150 kts | 291° |
| 2026-04-26 14:45 | 29.41533 | -95.22957 | 4017 ft | 152 kts | 296° |
| 2026-04-26 14:45 | 29.42077 | -95.23998 | 4018 ft | 152 kts | 292° |
| 2026-04-26 14:46 | 29.42605 | -95.25052 | 4019 ft | 153 kts | 292° |
| 2026-04-26 14:46 | 29.43117 | -95.26126 | 4020 ft | 155 kts | 292° |
| 2026-04-26 14:46 | 29.43643 | -95.27207 | 4023 ft | 156 kts | 292° |
| 2026-04-26 14:46 | 29.44192 | -95.28281 | 4020 ft | 157 kts | 294° |
| 2026-04-26 14:47 | 29.44742 | -95.29362 | 4021 ft | 157 kts | 294° |
| 2026-04-26 14:47 | 29.45266 | -95.30434 | 4020 ft | 156 kts | 291° |
| 2026-04-26 14:47 | 29.45753 | -95.31540 | 4016 ft | 155 kts | 290° |
| 2026-04-26 14:47 | 29.46268 | -95.32623 | 4017 ft | 155 kts | 291° |
| 2026-04-26 14:48 | 29.46750 | -95.33727 | 4017 ft | 154 kts | 288° |
| 2026-04-26 14:48 | 29.47246 | -95.34814 | 4016 ft | 153 kts | 293° |
| 2026-04-26 14:48 | 29.47823 | -95.35850 | 4019 ft | 156 kts | 296° |
| 2026-04-26 14:48 | 29.48401 | -95.36906 | 4020 ft | 156 kts | 294° |
| 2026-04-26 14:49 | 29.48903 | -95.38014 | 4018 ft | 156 kts | 291° |
| 2026-04-26 14:49 | 29.49429 | -95.39097 | 4018 ft | 155 kts | 297° |
| 2026-04-26 14:49 | 29.50002 | -95.40129 | 4016 ft | 155 kts | 296° |
| 2026-04-26 14:49 | 29.50517 | -95.41211 | 4019 ft | 154 kts | 289° |
| 2026-04-26 14:50 | 29.50973 | -95.42317 | 4017 ft | 153 kts | 288° |
| 2026-04-26 14:50 | 29.51424 | -95.43421 | 4019 ft | 153 kts | 293° |
| 2026-04-26 14:50 | 29.51981 | -95.44467 | 4018 ft | 154 kts | 295° |
| 2026-04-26 14:50 | 29.52512 | -95.45535 | 4018 ft | 154 kts | 292° |
| 2026-04-26 14:51 | 29.53029 | -95.46608 | 4020 ft | 154 kts | 293° |
| 2026-04-26 14:51 | 29.53552 | -95.47678 | 4021 ft | 154 kts | 293° |
| 2026-04-26 14:51 | 29.54080 | -95.48745 | 4021 ft | 153 kts | 295° |
| 2026-04-26 14:51 | 29.54606 | -95.49795 | 4019 ft | 154 kts | 293° |
| 2026-04-26 14:52 | 29.55101 | -95.50883 | 4020 ft | 154 kts | 290° |
| 2026-04-26 14:52 | 29.55631 | -95.51950 | 4018 ft | 155 kts | 294° |
| 2026-04-26 14:52 | 29.56159 | -95.53028 | 4022 ft | 155 kts | 292° |
| 2026-04-26 14:52 | 29.56663 | -95.54125 | 4018 ft | 155 kts | 291° |
| 2026-04-26 14:53 | 29.57169 | -95.55215 | 4017 ft | 155 kts | 292° |
| 2026-04-26 14:53 | 29.57697 | -95.56310 | 3804 ft | 164 kts | 293° |
| 2026-04-26 14:53 | 29.58236 | -95.57436 | 3519 ft | 158 kts | 292° |
| 2026-04-26 14:53 | 29.58769 | -95.58542 | 3146 ft | 160 kts | 293° |
| 2026-04-26 14:54 | 29.59315 | -95.59656 | 2788 ft | 158 kts | 293° |
| 2026-04-26 14:54 | 29.59942 | -95.60631 | 2485 ft | 151 kts | 317° |
| 2026-04-26 14:54 | 29.60865 | -95.61181 | 2298 ft | 147 kts | 334° |
| 2026-04-26 14:54 | 29.61799 | -95.61569 | 2207 ft | 138 kts | 339° |
| 2026-04-26 14:55 | 29.62721 | -95.61852 | 2048 ft | 136 kts | 346° |
| 2026-04-26 14:55 | 29.63630 | -95.62049 | 1930 ft | 131 kts | 349° |
| 2026-04-26 14:55 | 29.64521 | -95.62207 | 1779 ft | 130 kts | 351° |
| 2026-04-26 14:55 | 29.65426 | -95.62337 | 1660 ft | 131 kts | 354° |
| 2026-04-26 14:56 | 29.66329 | -95.62433 | 1542 ft | 129 kts | 350° |
| 2026-04-26 14:56 | 29.67072 | -95.62854 | 1458 ft | 117 kts | 310° |
| 2026-04-26 14:56 | 29.67429 | -95.63629 | 1361 ft | 110 kts | 277° |
| 2026-04-26 14:56 | 29.67487 | -95.64476 | 1324 ft | 104 kts | 263° |
| 2026-04-26 14:57 | 29.67434 | -95.65303 | 1244 ft | 102 kts | 248° |
| 2026-04-26 14:57 | 29.67078 | -95.65945 | 1151 ft | 94 kts | 211° |
| 2026-04-26 14:57 | 29.66473 | -95.66092 | 1010 ft | 90 kts | 172° |
| 2026-04-26 14:57 | 29.65856 | -95.66006 | 793 ft | 82 kts | 177° |
| 2026-04-26 14:58 | 29.65295 | -95.65963 | 578 ft | 81 kts | 175° |
| 2026-04-26 14:58 | 29.64707 | -95.65893 | 446 ft | 90 kts | 172° |
| 2026-04-26 14:58 | 29.64140 | -95.65842 | 350 ft | 70 kts | 173° |
| 2026-04-26 14:58 | 29.63629 | -95.65793 | 208 ft | 79 kts | 170° |
| 2026-04-26 14:59 | 29.63080 | -95.65734 | 91 ft | 71 kts | 173° |
| 2026-04-26 14:59 | 29.62702 | -95.65698 | 78 ft | 40 kts | 177° |
| 2026-04-26 14:59 | 29.62289 | -95.65659 | 111 ft | 81 kts | 172° |
| 2026-04-26 14:59 | 29.61909 | -95.65650 | 265 ft | 82 kts | 171° |
| 2026-04-26 15:00 | 29.61162 | -95.65532 | 631 ft | 79 kts | 163° |
| 2026-04-26 15:00 | 29.60673 | -95.65243 | 829 ft | 85 kts | 126° |
| 2026-04-26 15:00 | 29.60512 | -95.64545 | 993 ft | 100 kts | 101° |
| 2026-04-26 15:00 | 29.60619 | -95.63730 | 980 ft | 109 kts | 68° |
| 2026-04-26 15:01 | 29.61209 | -95.63236 | 987 ft | 111 kts | 13° |
| 2026-04-26 15:01 | 29.61989 | -95.63238 | 1003 ft | 114 kts | 353° |
| 2026-04-26 15:01 | 29.62780 | -95.63339 | 1031 ft | 116 kts | 352° |
| 2026-04-26 15:01 | 29.63578 | -95.63474 | 1067 ft | 120 kts | 348° |
| 2026-04-26 15:02 | 29.64372 | -95.63642 | 1080 ft | 114 kts | 348° |
| 2026-04-26 15:02 | 29.65138 | -95.63829 | 951 ft | 114 kts | 344° |
| 2026-04-26 15:02 | 29.65760 | -95.64369 | 871 ft | 112 kts | 297° |
| 2026-04-26 15:02 | 29.65943 | -95.65170 | 856 ft | 98 kts | 270° |
| 2026-04-26 15:03 | 29.65880 | -95.65928 | 716 ft | 100 kts | 228° |
| 2026-04-26 15:03 | 29.65310 | -95.66084 | 724 ft | 86 kts | 160° |
| 2026-04-26 15:03 | 29.64749 | -95.65908 | 554 ft | 80 kts | 168° |
| 2026-04-26 15:03 | 29.64231 | -95.65861 | 366 ft | 72 kts | 168° |
| 2026-04-26 15:04 | 29.63696 | -95.65799 | 233 ft | 79 kts | 169° |
| 2026-04-26 15:04 | 29.63166 | -95.65745 | 94 ft | 65 kts | 169° |
| 2026-04-26 15:04 | 29.62837 | -95.65712 | 80 ft | 33 kts | 173° |
| 2026-04-26 15:04 | 29.62514 | -95.65678 | 101 ft | 71 kts | 173° |
| 2026-04-26 15:05 | 29.62010 | -95.65672 | 364 ft | 74 kts | 171° |
| 2026-04-26 15:05 | 29.61666 | -95.65655 | 569 ft | 72 kts | 166° |
| 2026-04-26 15:05 | 29.61059 | -95.65435 | 784 ft | 63 kts | 146° |
| 2026-04-26 15:05 | 29.61142 | -95.65038 | 427 ft | 77 kts | 6° |
| 2026-04-26 15:06 | 29.61547 | -95.65446 | 174 ft | 79 kts | 320° |
| 2026-04-26 15:06 | 29.62001 | -95.65632 | 81 ft | 58 kts | 355° |
| 2026-04-26 15:06 | 29.62212 | -95.65655 | 81 ft | 10 kts | 359° |
| 2026-04-26 15:06 | 29.62267 | -95.65653 | 80 ft | 9 kts | 8° |
| 2026-04-26 15:07 | 29.62782 | -95.65697 | 77 ft | 32 kts | 353° |
| 2026-04-26 15:07 | 29.62955 | -95.65711 | 82 ft | 19 kts | 356° |
| 2026-04-26 15:07 | 29.63133 | -95.65729 | 86 ft | 25 kts | 354° |
| 2026-04-26 15:08 | 29.63262 | -95.65740 | 88 ft | 14 kts | 9° |
| 2026-04-26 15:08 | 29.63311 | -95.65756 | 89 ft | 6 kts | 215° |
| 2026-04-26 15:08 | 29.63299 | -95.65755 | 90 ft | 0 kts | 174° |
| 2026-04-26 15:09 | 29.63286 | -95.65753 | 89 ft | 14 kts | 173° |
| 2026-04-26 15:09 | 29.62961 | -95.65714 | 100 ft | 77 kts | 171° |
| 2026-04-26 15:09 | 29.62424 | -95.65693 | 373 ft | 77 kts | 169° |
| 2026-04-26 15:10 | 29.61896 | -95.65591 | 636 ft | 75 kts | 165° |
| 2026-04-26 15:10 | 29.61543 | -95.65524 | 838 ft | 75 kts | 168° |
| 2026-04-26 15:10 | 29.61326 | -95.65105 | 333 ft | 91 kts | 12° |
| 2026-04-26 15:10 | 29.61821 | -95.65476 | 134 ft | 86 kts | 323° |
| 2026-04-26 15:11 | 29.62299 | -95.65666 | 79 ft | 61 kts | 357° |
| 2026-04-26 15:11 | 29.62701 | -95.65698 | 78 ft | 82 kts | 354° |
| 2026-04-26 15:11 | 29.63354 | -95.65760 | 330 ft | 98 kts | 360° |
| 2026-04-26 15:11 | 29.64024 | -95.65937 | 765 ft | 100 kts | 348° |
| 2026-04-26 15:12 | 29.64655 | -95.66320 | 1046 ft | 113 kts | 311° |
| 2026-04-26 15:12 | 29.64859 | -95.67125 | 1468 ft | 97 kts | 269° |
| 2026-04-26 15:12 | 29.64921 | -95.67875 | 1901 ft | 94 kts | 265° |
| 2026-04-26 15:12 | 29.64962 | -95.68625 | 2283 ft | 93 kts | 264° |
| 2026-04-26 15:13 | 29.64999 | -95.69358 | 2635 ft | 92 kts | 260° |
| 2026-04-26 15:13 | 29.64658 | -95.69946 | 2981 ft | 90 kts | 205° |
| 2026-04-26 15:13 | 29.64113 | -95.70169 | 3393 ft | 75 kts | 195° |
| 2026-04-26 15:13 | 29.63625 | -95.70370 | 3688 ft | 79 kts | 199° |
| 2026-04-26 15:14 | 29.63145 | -95.70616 | 4024 ft | 77 kts | 204° |
| 2026-04-26 15:14 | 29.62668 | -95.70889 | 4326 ft | 78 kts | 198° |
| 2026-04-26 15:14 | 29.62100 | -95.70907 | 4544 ft | 88 kts | 173° |
| 2026-04-26 15:14 | 29.61539 | -95.70770 | 4911 ft | 77 kts | 158° |
| 2026-04-26 15:15 | 29.61020 | -95.70426 | 5106 ft | 93 kts | 158° |
| 2026-04-26 15:15 | 29.60481 | -95.70182 | 5522 ft | 77 kts | 172° |
| 2026-04-26 15:15 | 29.59908 | -95.70090 | 5711 ft | 90 kts | 182° |
| 2026-04-26 15:15 | 29.59342 | -95.70126 | 6154 ft | 38 kts | 181° |
| 2026-04-26 15:16 | 29.59286 | -95.69767 | 5729 ft | 125 kts | 70° |
| 2026-04-26 15:16 | 29.59333 | -95.69330 | 6284 ft | 62 kts | 63° |
| 2026-04-26 15:16 | 29.59663 | -95.68668 | 6556 ft | 86 kts | 72° |
| 2026-04-26 15:16 | 29.59601 | -95.67883 | 6622 ft | 108 kts | 119° |
| 2026-04-26 15:17 | 29.59090 | -95.67378 | 6923 ft | 94 kts | 167° |
| 2026-04-26 15:17 | 29.58696 | -95.67255 | 7150 ft | 83 kts | 171° |
| 2026-04-26 15:17 | 29.58137 | -95.67043 | 7133 ft | 19 kts | 315° |
| 2026-04-26 15:17 | 29.58147 | -95.67042 | 5540 ft | 55 kts | 294° |
| 2026-04-26 15:18 | 29.58268 | -95.67693 | 5709 ft | 42 kts | 257° |
| 2026-04-26 15:18 | 29.58055 | -95.68325 | 5531 ft | 104 kts | 235° |
| 2026-04-26 15:18 | 29.57700 | -95.68968 | 5983 ft | 82 kts | 237° |
| 2026-04-26 15:18 | 29.57437 | -95.69255 | 6054 ft | 70 kts | 121° |
| 2026-04-26 15:19 | 29.57310 | -95.68449 | 6548 ft | 57 kts | 99° |
| 2026-04-26 15:19 | 29.57532 | -95.68117 | 6500 ft | 101 kts | 15° |
| 2026-04-26 15:19 | 29.57848 | -95.67983 | 6750 ft | 52 kts | 59° |
| 2026-04-26 15:19 | 29.58441 | -95.67867 | 6579 ft | 109 kts | 298° |
| 2026-04-26 15:20 | 29.58619 | -95.68335 | 7064 ft | 27 kts | 301° |
| 2026-04-26 15:20 | 29.58613 | -95.68368 | 5688 ft | 4 kts | 244° |
| 2026-04-26 15:20 | 29.58614 | -95.68369 | 4329 ft | 7 kts | 128° |
| 2026-04-26 15:20 | 29.58616 | -95.68367 | 2997 ft | 4 kts | 289° |
| 2026-04-26 15:21 | 29.59127 | -95.68208 | 1791 ft | 119 kts | 21° |
| 2026-04-26 15:21 | 29.59783 | -95.67836 | 2322 ft | 96 kts | 30° |
| 2026-04-26 15:21 | 29.60279 | -95.67420 | 2844 ft | 83 kts | 39° |
| 2026-04-26 15:21 | 29.60596 | -95.67134 | 3281 ft | 38 kts | 32° |
| 2026-04-26 15:22 | 29.60075 | -95.66843 | 2055 ft | 125 kts | 145° |
| 2026-04-26 15:22 | 29.59897 | -95.66013 | 2042 ft | 122 kts | 63° |
| 2026-04-26 15:22 | 29.60262 | -95.65647 | 2462 ft | 17 kts | 162° |
| 2026-04-26 15:22 | 29.59964 | -95.64898 | 2226 ft | 120 kts | 65° |
| 2026-04-26 15:23 | 29.60641 | -95.64428 | 2338 ft | 100 kts | 18° |
| 2026-04-26 15:23 | 29.61244 | -95.64167 | 2197 ft | 88 kts | 19° |
| 2026-04-26 15:23 | 29.61859 | -95.64107 | 1953 ft | 88 kts | 353° |
| 2026-04-26 15:23 | 29.62439 | -95.64186 | 1653 ft | 87 kts | 351° |
| 2026-04-26 15:24 | 29.63071 | -95.64320 | 1328 ft | 98 kts | 340° |
| 2026-04-26 15:24 | 29.63700 | -95.64604 | 1031 ft | 96 kts | 325° |
| 2026-04-26 15:24 | 29.64050 | -95.65174 | 776 ft | 88 kts | 260° |
| 2026-04-26 15:24 | 29.63794 | -95.65730 | 514 ft | 80 kts | 200° |
| 2026-04-26 15:25 | 29.63244 | -95.65762 | 120 ft | 81 kts | 178° |
| 2026-04-26 15:25 | 29.62925 | -95.65724 | 85 ft | 58 kts | 173° |
| 2026-04-26 15:25 | 29.62435 | -95.65681 | 119 ft | 71 kts | 169° |
| 2026-04-26 15:25 | 29.61951 | -95.65673 | 415 ft | 68 kts | 171° |
| 2026-04-26 15:26 | 29.61467 | -95.65551 | 696 ft | 73 kts | 133° |
| 2026-04-26 15:26 | 29.61427 | -95.64988 | 961 ft | 83 kts | 67° |
| 2026-04-26 15:26 | 29.61737 | -95.64376 | 1161 ft | 101 kts | 51° |
| 2026-04-26 15:26 | 29.62440 | -95.64268 | 1175 ft | 106 kts | 349° |
| 2026-04-26 15:27 | 29.63213 | -95.64318 | 1234 ft | 118 kts | 359° |
| 2026-04-26 15:27 | 29.64047 | -95.64342 | 1284 ft | 116 kts | 358° |
| 2026-04-26 15:27 | 29.64831 | -95.64423 | 1336 ft | 109 kts | 353° |
| 2026-04-26 15:27 | 29.65529 | -95.64698 | 1392 ft | 112 kts | 302° |
| 2026-04-26 15:28 | 29.65580 | -95.65511 | 1469 ft | 95 kts | 252° |
| 2026-04-26 15:28 | 29.65183 | -95.65948 | 1551 ft | 88 kts | 175° |
| 2026-04-26 15:28 | 29.64660 | -95.65885 | 1307 ft | 77 kts | 183° |
| 2026-04-26 15:28 | 29.64057 | -95.65881 | 753 ft | 85 kts | 186° |
| 2026-04-26 15:29 | 29.63438 | -95.65816 | 189 ft | 94 kts | 176° |
| 2026-04-26 15:29 | 29.62925 | -95.65722 | 85 ft | 56 kts | 178° |
| 2026-04-26 15:29 | 29.62552 | -95.65681 | 78 ft | 24 kts | 170° |
| 2026-04-26 15:30 | 29.62426 | -95.65532 | 79 ft | 19 kts | 86° |
| 2026-04-26 15:30 | 29.62396 | -95.65398 | 85 ft | 15 kts | 115° |
| 2026-04-26 15:30 | 29.62351 | -95.65293 | 83 ft | 7 kts | 110° |
| 2026-04-26 15:31 | 29.62354 | -95.65273 | 83 ft | 3 kts | 327° |
| 2026-04-26 15:31 | 29.62340 | -95.65240 | 83 ft | 3 kts | 56° |
| 2026-04-26 15:31 | 29.62343 | -95.65239 | 83 ft | 0 kts | 340° |